Time;durP1;ratioP1;P1;durP2;ratioP2;P2;SDS_P1;SDS_P2;PMS_P1;PMS_P2;Temp;Humidity;BMP_temperature;BMP_pressure;BME280_temperature;BME280_humidity;BME280_pressure;Samples;Min_cycle;Max_cycle;Signal;HPM_P1;HPM_P2
2020/03/22 00:00:43;;;;;;;27.7;17.8;;;;;;;1.01;100;95700.31;;;;
2020/03/22 00:01:53;;;;;;;27.7;17.8;;;;;;;1.01;100;95700.31;;;;
2020/03/22 00:02:58;;;;;;;27.7;17.8;;;;;;;1.01;100;95700.31;;;;
2020/03/22 00:04:02;;;;;;;33.3;17.05;;;;;;;1.02;100;95716.08;;;;
2020/03/22 00:05:20;;;;;;;33.3;17.05;;;;;;;1.02;100;95716.08;;;;
2020/03/22 00:06:25;;;;;;;33.3;17.05;;;;;;;1.02;100;95716.08;;;;
2020/03/22 00:07:33;;;;;;;33.3;17.05;;;;;;;1.02;100;95716.08;;;;
2020/03/22 00:08:59;;;;;;;33.3;17.05;;;;;;;1.02;100;95716.08;;;;
2020/03/22 00:10:09;;;;;;;33.3;17.05;;;;;;;1.02;100;95716.08;;;;
2020/03/22 00:17:50;;;;;;;29.25;17.7;;;;;;;0.96;100;95709.67;;;;
2020/03/22 00:27:08;;;;;;;28.85;18.15;;;;;;;0.97;100;95718.8;;;;
2020/03/22 00:33:53;;;;;;;28.85;18.15;;;;;;;0.97;100;95718.8;;;;
2020/03/22 00:34:53;;;;;;;28.85;18.15;;;;;;;0.97;100;95718.8;;;;
2020/03/22 00:38:02;;;;;;;28.15;18.2;;;;;;;0.9;100;95716.49;;;;
2020/03/22 00:39:03;;;;;;;28.15;18.2;;;;;;;0.9;100;95716.49;;;;
2020/03/22 00:40:27;;;;;;;28.15;18.2;;;;;;;0.9;100;95716.49;;;;
2020/03/22 00:41:32;;;;;;;28.15;18.2;;;;;;;0.9;100;95716.49;;;;
2020/03/22 00:42:33;;;;;;;28.15;18.2;;;;;;;0.9;100;95716.49;;;;
2020/03/22 00:43:36;;;;;;;28.15;18.2;;;;;;;0.9;100;95716.49;;;;
2020/03/22 00:44:37;;;;;;;28.15;18.2;;;;;;;0.9;100;95716.49;;;;
2020/03/22 00:45:38;;;;;;;28.15;18.2;;;;;;;0.9;100;95716.49;;;;
2020/03/22 00:46:41;;;;;;;25.45;18.15;;;;;;;0.91;100;95708.01;;;;
2020/03/22 00:47:41;;;;;;;25.45;18.15;;;;;;;0.91;100;95708.01;;;;
2020/03/22 00:48:42;;;;;;;25.45;18.15;;;;;;;0.91;100;95708.01;;;;
2020/03/22 00:49:46;;;;;;;25.45;18.15;;;;;;;0.91;100;95708.01;;;;
2020/03/22 00:50:46;;;;;;;25.45;18.15;;;;;;;0.91;100;95708.01;;;;
2020/03/22 00:51:47;;;;;;;25.45;18.15;;;;;;;0.91;100;95708.01;;;;
2020/03/22 00:52:48;;;;;;;25.45;18.15;;;;;;;0.91;100;95708.01;;;;
2020/03/22 00:53:49;;;;;;;25.45;18.15;;;;;;;0.91;100;95708.01;;;;
2020/03/22 00:54:53;;;;;;;25.45;18.15;;;;;;;0.91;100;95708.01;;;;
2020/03/22 00:55:53;;;;;;;25.45;18.15;;;;;;;0.91;100;95708.01;;;;
2020/03/22 00:56:54;;;;;;;28;18.7;;;;;;;0.83;100;95699.13;;;;
2020/03/22 00:57:54;;;;;;;28;18.7;;;;;;;0.83;100;95699.13;;;;
2020/03/22 00:58:55;;;;;;;28;18.7;;;;;;;0.83;100;95699.13;;;;
2020/03/22 00:59:55;;;;;;;28;18.7;;;;;;;0.83;100;95699.13;;;;
2020/03/22 01:00:56;;;;;;;28;18.7;;;;;;;0.83;100;95699.13;;;;
2020/03/22 01:02:22;;;;;;;28;18.7;;;;;;;0.83;100;95699.13;;;;
2020/03/22 01:03:28;;;;;;;28;18.7;;;;;;;0.83;100;95699.13;;;;
2020/03/22 01:04:34;;;;;;;28;18.7;;;;;;;0.83;100;95699.13;;;;
2020/03/22 01:05:37;;;;;;;28;18.7;;;;;;;0.83;100;95699.13;;;;
2020/03/22 01:06:37;;;;;;;28;18.7;;;;;;;0.83;100;95699.13;;;;
2020/03/22 01:07:38;;;;;;;28.85;18.4;;;;;;;0.85;100;95689.15;;;;
2020/03/22 01:08:39;;;;;;;28.85;18.4;;;;;;;0.85;100;95689.15;;;;
2020/03/22 01:09:40;;;;;;;28.85;18.4;;;;;;;0.85;100;95689.15;;;;
2020/03/22 01:10:49;;;;;;;28.85;18.4;;;;;;;0.85;100;95689.15;;;;
2020/03/22 01:11:50;;;;;;;28.85;18.4;;;;;;;0.85;100;95689.15;;;;
2020/03/22 01:12:50;;;;;;;28.85;18.4;;;;;;;0.85;100;95689.15;;;;
2020/03/22 01:13:51;;;;;;;28.85;18.4;;;;;;;0.85;100;95689.15;;;;
2020/03/22 01:14:53;;;;;;;28.85;18.4;;;;;;;0.85;100;95689.15;;;;
2020/03/22 01:15:59;;;;;;;28.85;18.4;;;;;;;0.85;100;95689.15;;;;
2020/03/22 01:16:59;;;;;;;28.85;18.4;;;;;;;0.85;100;95689.15;;;;
2020/03/22 01:18:00;;;;;;;28.85;18.4;;;;;;;0.85;100;95689.15;;;;
2020/03/22 01:19:04;;;;;;;24.15;17.05;;;;;;;0.81;100;95682.93;;;;
2020/03/22 01:20:04;;;;;;;24.15;17.05;;;;;;;0.81;100;95682.93;;;;
2020/03/22 01:21:14;;;;;;;24.15;17.05;;;;;;;0.81;100;95682.93;;;;
2020/03/22 01:22:14;;;;;;;24.15;17.05;;;;;;;0.81;100;95682.93;;;;
2020/03/22 01:23:15;;;;;;;24.15;17.05;;;;;;;0.81;100;95682.93;;;;
2020/03/22 01:24:23;;;;;;;24.15;17.05;;;;;;;0.81;100;95682.93;;;;
2020/03/22 01:25:24;;;;;;;24.15;17.05;;;;;;;0.81;100;95682.93;;;;
2020/03/22 01:26:28;;;;;;;24.15;17.05;;;;;;;0.81;100;95682.93;;;;
2020/03/22 01:27:32;;;;;;;24.15;17.05;;;;;;;0.81;100;95682.93;;;;
2020/03/22 01:28:33;;;;;;;24.15;17.05;;;;;;;0.81;100;95682.93;;;;
2020/03/22 01:29:35;;;;;;;23.2;16.25;;;;;;;0.83;100;95687.16;;;;
2020/03/22 01:30:36;;;;;;;23.2;16.25;;;;;;;0.83;100;95687.16;;;;
2020/03/22 01:31:44;;;;;;;23.2;16.25;;;;;;;0.83;100;95687.16;;;;
2020/03/22 01:32:48;;;;;;;23.2;16.25;;;;;;;0.83;100;95687.16;;;;
2020/03/22 01:33:51;;;;;;;23.2;16.25;;;;;;;0.83;100;95687.16;;;;
2020/03/22 01:34:52;;;;;;;23.2;16.25;;;;;;;0.83;100;95687.16;;;;
2020/03/22 01:35:53;;;;;;;23.2;16.25;;;;;;;0.83;100;95687.16;;;;
2020/03/22 01:36:53;;;;;;;23.2;16.25;;;;;;;0.83;100;95687.16;;;;
2020/03/22 01:37:55;;;;;;;23.2;16.25;;;;;;;0.83;100;95687.16;;;;
2020/03/22 01:38:55;;;;;;;23.2;16.25;;;;;;;0.83;100;95687.16;;;;
2020/03/22 01:39:57;;;;;;;23.5;16.35;;;;;;;0.77;100;95686.91;;;;
2020/03/22 01:40:58;;;;;;;23.5;16.35;;;;;;;0.77;100;95686.91;;;;
2020/03/22 01:42:00;;;;;;;23.5;16.35;;;;;;;0.77;100;95686.91;;;;
2020/03/22 01:43:00;;;;;;;23.5;16.35;;;;;;;0.77;100;95686.91;;;;
2020/03/22 01:44:04;;;;;;;23.5;16.35;;;;;;;0.77;100;95686.91;;;;
2020/03/22 01:45:05;;;;;;;23.5;16.35;;;;;;;0.77;100;95686.91;;;;
2020/03/22 01:46:06;;;;;;;23.5;16.35;;;;;;;0.77;100;95686.91;;;;
2020/03/22 01:47:08;;;;;;;23.5;16.35;;;;;;;0.77;100;95686.91;;;;
2020/03/22 01:48:08;;;;;;;23.5;16.35;;;;;;;0.77;100;95686.91;;;;
2020/03/22 01:49:10;;;;;;;23.5;16.35;;;;;;;0.77;100;95686.91;;;;
2020/03/22 01:50:10;;;;;;;20.1;14.35;;;;;;;0.79;100;95694.74;;;;
2020/03/22 01:51:11;;;;;;;20.1;14.35;;;;;;;0.79;100;95694.74;;;;
2020/03/22 01:52:11;;;;;;;20.1;14.35;;;;;;;0.79;100;95694.74;;;;
2020/03/22 01:53:12;;;;;;;20.1;14.35;;;;;;;0.79;100;95694.74;;;;
2020/03/22 01:54:15;;;;;;;20.1;14.35;;;;;;;0.79;100;95694.74;;;;
2020/03/22 01:55:15;;;;;;;20.1;14.35;;;;;;;0.79;100;95694.74;;;;
2020/03/22 01:56:16;;;;;;;20.1;14.35;;;;;;;0.79;100;95694.74;;;;
2020/03/22 01:57:18;;;;;;;20.1;14.35;;;;;;;0.79;100;95694.74;;;;
2020/03/22 01:58:26;;;;;;;20.1;14.35;;;;;;;0.79;100;95694.74;;;;
2020/03/22 01:59:30;;;;;;;20.1;14.35;;;;;;;0.79;100;95694.74;;;;
2020/03/22 02:00:31;;;;;;;20.1;14.35;;;;;;;0.79;100;95694.74;;;;
2020/03/22 02:01:39;;;;;;;20.1;14.35;;;;;;;0.79;100;95694.74;;;;
2020/03/22 02:02:47;;;;;;;20.1;14.35;;;;;;;0.79;100;95694.74;;;;
2020/03/22 02:03:47;;;;;;;20.1;14.35;;;;;;;0.79;100;95694.74;;;;
2020/03/22 02:04:51;;;;;;;20.1;14.35;;;;;;;0.79;100;95694.74;;;;
2020/03/22 02:05:52;;;;;;;20.1;14.35;;;;;;;0.79;100;95694.74;;;;
2020/03/22 02:07:00;;;;;;;20.1;14.35;;;;;;;0.79;100;95694.74;;;;
2020/03/22 02:08:01;;;;;;;20.1;14.35;;;;;;;0.79;100;95694.74;;;;
2020/03/22 02:09:02;;;;;;;20.1;14.35;;;;;;;0.79;100;95694.74;;;;
2020/03/22 02:10:26;;;;;;;20.1;14.35;;;;;;;0.79;100;95694.74;;;;
2020/03/22 02:11:31;;;;;;;15.55;10.9;;;;;;;0.76;100;95698.55;;;;
2020/03/22 02:12:34;;;;;;;15.55;10.9;;;;;;;0.76;100;95698.55;;;;
2020/03/22 02:17:41;;;;;;;15.55;10.9;;;;;;;0.76;100;95698.55;;;;
2020/03/22 02:18:44;;;;;;;15.55;10.9;;;;;;;0.76;100;95698.55;;;;
2020/03/22 02:20:45;;;;;;;15.55;10.9;;;;;;;0.76;100;95698.55;;;;
2020/03/22 02:21:46;;;;;;;15.55;10.9;;;;;;;0.76;100;95698.55;;;;
2020/03/22 02:22:48;;;;;;;13.7;10.5;;;;;;;0.62;100;95707.67;;;;
2020/03/22 02:23:51;;;;;;;13.7;10.5;;;;;;;0.62;100;95707.67;;;;
2020/03/22 02:24:54;;;;;;;13.7;10.5;;;;;;;0.62;100;95707.67;;;;
2020/03/22 02:25:56;;;;;;;13.7;10.5;;;;;;;0.62;100;95707.67;;;;
2020/03/22 02:26:56;;;;;;;13.7;10.5;;;;;;;0.62;100;95707.67;;;;
2020/03/22 02:28:08;;;;;;;13.7;10.5;;;;;;;0.62;100;95707.67;;;;
2020/03/22 02:29:09;;;;;;;13.7;10.5;;;;;;;0.62;100;95707.67;;;;
2020/03/22 02:30:10;;;;;;;13.7;10.5;;;;;;;0.62;100;95707.67;;;;
2020/03/22 02:31:12;;;;;;;13.7;10.5;;;;;;;0.62;100;95707.67;;;;
2020/03/22 02:32:13;;;;;;;13.7;10.5;;;;;;;0.62;100;95707.67;;;;
2020/03/22 02:33:15;;;;;;;14.4;11.05;;;;;;;0.56;100;95706.5;;;;
2020/03/22 02:34:20;;;;;;;14.4;11.05;;;;;;;0.56;100;95706.5;;;;
2020/03/22 02:35:21;;;;;;;14.4;11.05;;;;;;;0.56;100;95706.5;;;;
2020/03/22 02:36:23;;;;;;;14.4;11.05;;;;;;;0.56;100;95706.5;;;;
2020/03/22 02:37:26;;;;;;;14.4;11.05;;;;;;;0.56;100;95706.5;;;;
2020/03/22 02:38:26;;;;;;;14.4;11.05;;;;;;;0.56;100;95706.5;;;;
2020/03/22 02:39:35;;;;;;;14.4;11.05;;;;;;;0.56;100;95706.5;;;;
2020/03/22 02:40:44;;;;;;;14.4;11.05;;;;;;;0.56;100;95706.5;;;;
2020/03/22 02:41:56;;;;;;;14.4;11.05;;;;;;;0.56;100;95706.5;;;;
2020/03/22 02:42:56;;;;;;;14.4;11.05;;;;;;;0.56;100;95706.5;;;;
2020/03/22 02:43:57;;;;;;;14.1;10.3;;;;;;;0.47;100;95718.64;;;;
2020/03/22 02:44:59;;;;;;;14.1;10.3;;;;;;;0.47;100;95718.64;;;;
2020/03/22 02:45:59;;;;;;;14.1;10.3;;;;;;;0.47;100;95718.64;;;;
2020/03/22 02:47:00;;;;;;;14.1;10.3;;;;;;;0.47;100;95718.64;;;;
2020/03/22 02:48:01;;;;;;;14.1;10.3;;;;;;;0.47;100;95718.64;;;;
2020/03/22 02:49:03;;;;;;;14.1;10.3;;;;;;;0.47;100;95718.64;;;;
2020/03/22 02:50:04;;;;;;;14.1;10.3;;;;;;;0.47;100;95718.64;;;;
2020/03/22 02:51:05;;;;;;;14.1;10.3;;;;;;;0.47;100;95718.64;;;;
2020/03/22 02:52:06;;;;;;;14.1;10.3;;;;;;;0.47;100;95718.64;;;;
2020/03/22 02:53:09;;;;;;;14.1;10.3;;;;;;;0.47;100;95718.64;;;;
2020/03/22 02:54:10;;;;;;;13.8;10.3;;;;;;;0.44;100;95716.22;;;;
2020/03/22 02:55:11;;;;;;;13.8;10.3;;;;;;;0.44;100;95716.22;;;;
2020/03/22 02:56:12;;;;;;;13.8;10.3;;;;;;;0.44;100;95716.22;;;;
2020/03/22 02:57:12;;;;;;;13.8;10.3;;;;;;;0.44;100;95716.22;;;;
2020/03/22 02:58:15;;;;;;;13.8;10.3;;;;;;;0.44;100;95716.22;;;;
2020/03/22 02:59:18;;;;;;;13.8;10.3;;;;;;;0.44;100;95716.22;;;;
2020/03/22 03:00:19;;;;;;;13.8;10.3;;;;;;;0.44;100;95716.22;;;;
2020/03/22 03:01:28;;;;;;;13.8;10.3;;;;;;;0.44;100;95716.22;;;;
2020/03/22 03:02:32;;;;;;;13.8;10.3;;;;;;;0.44;100;95716.22;;;;
2020/03/22 03:03:32;;;;;;;13.8;10.3;;;;;;;0.44;100;95716.22;;;;
2020/03/22 03:04:36;;;;;;;12.55;9.750001;;;;;;;0.37;100;95716.12;;;;
2020/03/22 03:05:39;;;;;;;12.55;9.750001;;;;;;;0.37;100;95716.12;;;;
2020/03/22 03:06:40;;;;;;;12.55;9.750001;;;;;;;0.37;100;95716.12;;;;
2020/03/22 03:07:47;;;;;;;12.55;9.750001;;;;;;;0.37;100;95716.12;;;;
2020/03/22 03:08:48;;;;;;;12.55;9.750001;;;;;;;0.37;100;95716.12;;;;
2020/03/22 03:09:56;;;;;;;12.55;9.750001;;;;;;;0.37;100;95716.12;;;;
2020/03/22 03:11:17;;;;;;;12.55;9.750001;;;;;;;0.37;100;95716.12;;;;
2020/03/22 03:12:20;;;;;;;12.55;9.750001;;;;;;;0.37;100;95716.12;;;;
2020/03/22 03:13:29;;;;;;;12.55;9.750001;;;;;;;0.37;100;95716.12;;;;
2020/03/22 03:14:29;;;;;;;12.55;9.750001;;;;;;;0.37;100;95716.12;;;;
2020/03/22 03:15:30;;;;;;;11.35;9.449999;;;;;;;0.37;100;95731.21;;;;
2020/03/22 03:16:30;;;;;;;11.35;9.449999;;;;;;;0.37;100;95731.21;;;;
2020/03/22 03:17:32;;;;;;;11.35;9.449999;;;;;;;0.37;100;95731.21;;;;
2020/03/22 03:18:32;;;;;;;11.35;9.449999;;;;;;;0.37;100;95731.21;;;;
2020/03/22 03:19:33;;;;;;;11.35;9.449999;;;;;;;0.37;100;95731.21;;;;
2020/03/22 03:20:33;;;;;;;11.35;9.449999;;;;;;;0.37;100;95731.21;;;;
2020/03/22 03:21:34;;;;;;;11.35;9.449999;;;;;;;0.37;100;95731.21;;;;
2020/03/22 03:22:37;;;;;;;11.35;9.449999;;;;;;;0.37;100;95731.21;;;;
2020/03/22 03:23:37;;;;;;;11.35;9.449999;;;;;;;0.37;100;95731.21;;;;
2020/03/22 03:24:38;;;;;;;11.35;9.449999;;;;;;;0.37;100;95731.21;;;;
2020/03/22 03:25:39;;;;;;;11.35;9.449999;;;;;;;0.37;100;95731.21;;;;
2020/03/22 03:26:40;;;;;;;13.15;10.2;;;;;;;0.27;100;95729.63;;;;
2020/03/22 03:27:40;;;;;;;13.15;10.2;;;;;;;0.27;100;95729.63;;;;
2020/03/22 03:28:41;;;;;;;13.15;10.2;;;;;;;0.27;100;95729.63;;;;
2020/03/22 03:29:42;;;;;;;13.15;10.2;;;;;;;0.27;100;95729.63;;;;
2020/03/22 03:30:43;;;;;;;13.15;10.2;;;;;;;0.27;100;95729.63;;;;
2020/03/22 03:31:44;;;;;;;13.15;10.2;;;;;;;0.27;100;95729.63;;;;
2020/03/22 03:32:44;;;;;;;13.15;10.2;;;;;;;0.27;100;95729.63;;;;
2020/03/22 03:33:45;;;;;;;13.15;10.2;;;;;;;0.27;100;95729.63;;;;
2020/03/22 03:34:49;;;;;;;13.15;10.2;;;;;;;0.27;100;95729.63;;;;
2020/03/22 03:35:54;;;;;;;13.15;10.2;;;;;;;0.27;100;95729.63;;;;
2020/03/22 03:36:57;;;;;;;14.2;10.15;;;;;;;0.26;100;95743.39;;;;
2020/03/22 03:37:58;;;;;;;14.2;10.15;;;;;;;0.26;100;95743.39;;;;
2020/03/22 03:38:59;;;;;;;14.2;10.15;;;;;;;0.26;100;95743.39;;;;
2020/03/22 03:40:08;;;;;;;14.2;10.15;;;;;;;0.26;100;95743.39;;;;
2020/03/22 03:41:09;;;;;;;14.2;10.15;;;;;;;0.26;100;95743.39;;;;
2020/03/22 03:42:11;;;;;;;14.2;10.15;;;;;;;0.26;100;95743.39;;;;
2020/03/22 03:43:11;;;;;;;14.2;10.15;;;;;;;0.26;100;95743.39;;;;
2020/03/22 03:44:12;;;;;;;14.2;10.15;;;;;;;0.26;100;95743.39;;;;
2020/03/22 03:45:12;;;;;;;14.2;10.15;;;;;;;0.26;100;95743.39;;;;
2020/03/22 03:46:13;;;;;;;14.2;10.15;;;;;;;0.26;100;95743.39;;;;
2020/03/22 03:47:16;;;;;;;13.75;10.35;;;;;;;0.2;100;95743.61;;;;
2020/03/22 03:48:19;;;;;;;13.75;10.35;;;;;;;0.2;100;95743.61;;;;
2020/03/22 03:49:22;;;;;;;13.75;10.35;;;;;;;0.2;100;95743.61;;;;
2020/03/22 03:50:23;;;;;;;13.75;10.35;;;;;;;0.2;100;95743.61;;;;
2020/03/22 03:51:26;;;;;;;13.75;10.35;;;;;;;0.2;100;95743.61;;;;
2020/03/22 03:52:34;;;;;;;13.75;10.35;;;;;;;0.2;100;95743.61;;;;
2020/03/22 03:53:37;;;;;;;13.75;10.35;;;;;;;0.2;100;95743.61;;;;
2020/03/22 03:54:45;;;;;;;13.75;10.35;;;;;;;0.2;100;95743.61;;;;
2020/03/22 03:55:48;;;;;;;13.75;10.35;;;;;;;0.2;100;95743.61;;;;
2020/03/22 03:56:57;;;;;;;13.75;10.35;;;;;;;0.2;100;95743.61;;;;
2020/03/22 03:57:59;;;;;;;14.2;10.25;;;;;;;0.21;100;95753.67;;;;
2020/03/22 03:59:02;;;;;;;14.2;10.25;;;;;;;0.21;100;95753.67;;;;
2020/03/22 04:00:04;;;;;;;14.2;10.25;;;;;;;0.21;100;95753.67;;;;
2020/03/22 04:01:13;;;;;;;14.2;10.25;;;;;;;0.21;100;95753.67;;;;
2020/03/22 04:02:15;;;;;;;14.2;10.25;;;;;;;0.21;100;95753.67;;;;
2020/03/22 04:03:17;;;;;;;14.2;10.25;;;;;;;0.21;100;95753.67;;;;
2020/03/22 04:04:18;;;;;;;14.2;10.25;;;;;;;0.21;100;95753.67;;;;
2020/03/22 04:06:28;;;;;;;14.2;10.25;;;;;;;0.21;100;95753.67;;;;
2020/03/22 04:07:34;;;;;;;14.2;10.25;;;;;;;0.21;100;95753.67;;;;
2020/03/22 04:08:40;;;;;;;12.85;9.75;;;;;;;0.16;100;95757.81;;;;
2020/03/22 04:09:47;;;;;;;12.85;9.75;;;;;;;0.16;100;95757.81;;;;
2020/03/22 04:10:48;;;;;;;12.85;9.75;;;;;;;0.16;100;95757.81;;;;
2020/03/22 04:11:49;;;;;;;12.85;9.75;;;;;;;0.16;100;95757.81;;;;
2020/03/22 04:12:53;;;;;;;12.85;9.75;;;;;;;0.16;100;95757.81;;;;
2020/03/22 04:13:56;;;;;;;12.85;9.75;;;;;;;0.16;100;95757.81;;;;
2020/03/22 04:14:57;;;;;;;12.85;9.75;;;;;;;0.16;100;95757.81;;;;
2020/03/22 04:15:59;;;;;;;12.85;9.75;;;;;;;0.16;100;95757.81;;;;
2020/03/22 04:17:01;;;;;;;12.85;9.75;;;;;;;0.16;100;95757.81;;;;
2020/03/22 04:18:02;;;;;;;12.85;9.75;;;;;;;0.16;100;95757.81;;;;
2020/03/22 04:19:06;;;;;;;13.8;9.45;;;;;;;0.18;100;95761.13;;;;
2020/03/22 04:20:10;;;;;;;13.8;9.45;;;;;;;0.18;100;95761.13;;;;
2020/03/22 04:21:13;;;;;;;13.8;9.45;;;;;;;0.18;100;95761.13;;;;
2020/03/22 04:22:19;;;;;;;13.8;9.45;;;;;;;0.18;100;95761.13;;;;
2020/03/22 04:23:24;;;;;;;13.8;9.45;;;;;;;0.18;100;95761.13;;;;
2020/03/22 04:24:29;;;;;;;13.8;9.45;;;;;;;0.18;100;95761.13;;;;
2020/03/22 04:25:31;;;;;;;13.8;9.45;;;;;;;0.18;100;95761.13;;;;
2020/03/22 04:26:38;;;;;;;13.8;9.45;;;;;;;0.18;100;95761.13;;;;
2020/03/22 04:27:46;;;;;;;13.8;9.45;;;;;;;0.18;100;95761.13;;;;
2020/03/22 04:28:50;;;;;;;13.8;9.45;;;;;;;0.18;100;95761.13;;;;
2020/03/22 04:29:53;;;;;;;14.6;10.35;;;;;;;0.12;100;95777.26;;;;
2020/03/22 04:30:56;;;;;;;14.6;10.35;;;;;;;0.12;100;95777.26;;;;
2020/03/22 04:32:03;;;;;;;14.6;10.35;;;;;;;0.12;100;95777.26;;;;
2020/03/22 04:33:04;;;;;;;14.6;10.35;;;;;;;0.12;100;95777.26;;;;
2020/03/22 04:34:07;;;;;;;14.6;10.35;;;;;;;0.12;100;95777.26;;;;
2020/03/22 04:35:07;;;;;;;14.6;10.35;;;;;;;0.12;100;95777.26;;;;
2020/03/22 04:36:12;;;;;;;14.6;10.35;;;;;;;0.12;100;95777.26;;;;
2020/03/22 04:37:14;;;;;;;14.6;10.35;;;;;;;0.12;100;95777.26;;;;
2020/03/22 04:38:16;;;;;;;14.6;10.35;;;;;;;0.12;100;95777.26;;;;
2020/03/22 04:39:21;;;;;;;14.6;10.35;;;;;;;0.12;100;95777.26;;;;
2020/03/22 04:40:26;;;;;;;15.55;10.6;;;;;;;0.12;100;95779.02;;;;
2020/03/22 04:41:26;;;;;;;15.55;10.6;;;;;;;0.12;100;95779.02;;;;
2020/03/22 04:42:27;;;;;;;15.55;10.6;;;;;;;0.12;100;95779.02;;;;
2020/03/22 04:43:35;;;;;;;15.55;10.6;;;;;;;0.12;100;95779.02;;;;
2020/03/22 04:44:38;;;;;;;15.55;10.6;;;;;;;0.12;100;95779.02;;;;
2020/03/22 04:45:41;;;;;;;15.55;10.6;;;;;;;0.12;100;95779.02;;;;
2020/03/22 04:47:04;;;;;;;15.55;10.6;;;;;;;0.12;100;95779.02;;;;
2020/03/22 04:48:10;;;;;;;15.55;10.6;;;;;;;0.12;100;95779.02;;;;
2020/03/22 04:49:17;;;;;;;15.55;10.6;;;;;;;0.12;100;95779.02;;;;
2020/03/22 04:50:18;;;;;;;15.55;10.6;;;;;;;0.12;100;95779.02;;;;
2020/03/22 04:51:32;;;;;;;13.4;9.750001;;;;;;;0.06;100;95794.25;;;;
2020/03/22 04:52:40;;;;;;;13.4;9.750001;;;;;;;0.06;100;95794.25;;;;
2020/03/22 04:53:47;;;;;;;13.4;9.750001;;;;;;;0.06;100;95794.25;;;;
2020/03/22 04:55:15;;;;;;;13.4;9.750001;;;;;;;0.06;100;95794.25;;;;
2020/03/22 04:56:17;;;;;;;13.4;9.750001;;;;;;;0.06;100;95794.25;;;;
2020/03/22 04:57:43;;;;;;;13.4;9.750001;;;;;;;0.06;100;95794.25;;;;
2020/03/22 04:58:54;;;;;;;13.4;9.750001;;;;;;;0.06;100;95794.25;;;;
2020/03/22 05:00:11;;;;;;;13.4;9.750001;;;;;;;0.06;100;95794.25;;;;
2020/03/22 05:01:17;;;;;;;13.55;9.599999;;;;;;;0;100;95801.54;;;;
2020/03/22 05:02:26;;;;;;;13.55;9.599999;;;;;;;0;100;95801.54;;;;
2020/03/22 05:03:28;;;;;;;13.55;9.599999;;;;;;;0;100;95801.54;;;;
2020/03/22 05:04:37;;;;;;;13.55;9.599999;;;;;;;0;100;95801.54;;;;
2020/03/22 05:05:47;;;;;;;13.55;9.599999;;;;;;;0;100;95801.54;;;;
2020/03/22 05:06:53;;;;;;;13.55;9.599999;;;;;;;0;100;95801.54;;;;
2020/03/22 05:08:02;;;;;;;13.55;9.599999;;;;;;;0;100;95801.54;;;;
2020/03/22 05:09:07;;;;;;;13.55;9.599999;;;;;;;0;100;95801.54;;;;
2020/03/22 05:10:15;;;;;;;13.55;9.599999;;;;;;;0;100;95801.54;;;;
2020/03/22 05:11:18;;;;;;;13.55;9.599999;;;;;;;0;100;95801.54;;;;
2020/03/22 05:12:19;;;;;;;14.15;10;;;;;;;-0.14;100;95817.54;;;;
2020/03/22 05:13:28;;;;;;;14.15;10;;;;;;;-0.14;100;95817.54;;;;
2020/03/22 05:14:33;;;;;;;14.15;10;;;;;;;-0.14;100;95817.54;;;;
2020/03/22 05:15:37;;;;;;;14.15;10;;;;;;;-0.14;100;95817.54;;;;
2020/03/22 05:16:40;;;;;;;14.15;10;;;;;;;-0.14;100;95817.54;;;;
2020/03/22 05:17:47;;;;;;;14.15;10;;;;;;;-0.14;100;95817.54;;;;
2020/03/22 05:18:53;;;;;;;14.15;10;;;;;;;-0.14;100;95817.54;;;;
2020/03/22 05:20:56;;;;;;;14.15;10;;;;;;;-0.14;100;95817.54;;;;
2020/03/22 05:24:47;;;;;;;13.1;8.549999;;;;;;;-0.15;100;95838.02;;;;
2020/03/22 05:26:27;;;;;;;13.1;8.549999;;;;;;;-0.15;100;95838.02;;;;
2020/03/22 05:28:09;;;;;;;13.1;8.549999;;;;;;;-0.15;100;95838.02;;;;
2020/03/22 05:29:29;;;;;;;13.1;8.549999;;;;;;;-0.15;100;95838.02;;;;
2020/03/22 05:31:31;;;;;;;13.1;8.549999;;;;;;;-0.15;100;95838.02;;;;
2020/03/22 05:33:15;;;;;;;11.6;8.549999;;;;;;;-0.17;100;95843.56;;;;
2020/03/22 05:34:43;;;;;;;11.6;8.549999;;;;;;;-0.17;100;95843.56;;;;
2020/03/22 05:35:58;;;;;;;11.6;8.549999;;;;;;;-0.17;100;95843.56;;;;
2020/03/22 05:37:59;;;;;;;11.6;8.549999;;;;;;;-0.17;100;95843.56;;;;
2020/03/22 05:47:24;;;;;;;11.1;9.2;;;;;;;-0.12;100;95853.14;;;;
2020/03/22 05:48:32;;;;;;;11.1;9.2;;;;;;;-0.12;100;95853.14;;;;
2020/03/22 05:49:40;;;;;;;11.1;9.2;;;;;;;-0.12;100;95853.14;;;;
2020/03/22 05:50:42;;;;;;;11.1;9.2;;;;;;;-0.12;100;95853.14;;;;
2020/03/22 05:51:44;;;;;;;11.1;9.2;;;;;;;-0.12;100;95853.14;;;;
2020/03/22 05:52:47;;;;;;;11.1;9.2;;;;;;;-0.12;100;95853.14;;;;
2020/03/22 05:53:52;;;;;;;11.1;9.2;;;;;;;-0.12;100;95853.14;;;;
2020/03/22 05:55:01;;;;;;;13.15;9.000002;;;;;;;-0.12;99.81738;95859.34;;;;
2020/03/22 05:56:06;;;;;;;13.15;9.000002;;;;;;;-0.12;99.81738;95859.34;;;;
2020/03/22 05:57:46;;;;;;;13.15;9.000002;;;;;;;-0.12;99.81738;95859.34;;;;
2020/03/22 05:59:24;;;;;;;13.15;9.000002;;;;;;;-0.12;99.81738;95859.34;;;;
2020/03/22 06:00:58;;;;;;;13.15;9.000002;;;;;;;-0.12;99.81738;95859.34;;;;
2020/03/22 06:02:06;;;;;;;13.15;9.000002;;;;;;;-0.12;99.81738;95859.34;;;;
2020/03/22 06:08:23;;;;;;;10.8;8.050001;;;;;;;0.03;99.58301;95876.37;;;;
2020/03/22 06:09:44;;;;;;;10.8;8.050001;;;;;;;0.03;99.58301;95876.37;;;;
2020/03/22 06:11:04;;;;;;;10.8;8.050001;;;;;;;0.03;99.58301;95876.37;;;;
2020/03/22 06:17:16;;;;;;;11.6;8.749998;;;;;;;0.09;99.19141;95892.97;;;;
2020/03/22 06:18:29;;;;;;;11.6;8.749998;;;;;;;0.09;99.19141;95892.97;;;;
2020/03/22 06:19:40;;;;;;;11.6;8.749998;;;;;;;0.09;99.19141;95892.97;;;;
2020/03/22 06:20:44;;;;;;;11.6;8.749998;;;;;;;0.09;99.19141;95892.97;;;;
2020/03/22 06:21:54;;;;;;;11.6;8.749998;;;;;;;0.09;99.19141;95892.97;;;;
2020/03/22 06:23:10;;;;;;;11.6;8.749998;;;;;;;0.09;99.19141;95892.97;;;;
2020/03/22 06:24:18;;;;;;;11.6;8.749998;;;;;;;0.09;99.19141;95892.97;;;;
2020/03/22 06:25:20;;;;;;;11.6;8.749998;;;;;;;0.09;99.19141;95892.97;;;;
2020/03/22 06:26:24;;;;;;;15.7;9.799999;;;;;;;0.28;98.66504;95898.14;;;;
2020/03/22 06:27:28;;;;;;;15.7;9.799999;;;;;;;0.28;98.66504;95898.14;;;;
2020/03/22 06:28:36;;;;;;;15.7;9.799999;;;;;;;0.28;98.66504;95898.14;;;;
2020/03/22 06:29:45;;;;;;;15.7;9.799999;;;;;;;0.28;98.66504;95898.14;;;;
2020/03/22 06:30:49;;;;;;;15.7;9.799999;;;;;;;0.28;98.66504;95898.14;;;;
2020/03/22 06:31:52;;;;;;;15.7;9.799999;;;;;;;0.28;98.66504;95898.14;;;;
2020/03/22 06:32:55;;;;;;;15.7;9.799999;;;;;;;0.28;98.66504;95898.14;;;;
2020/03/22 06:34:00;;;;;;;15.7;9.799999;;;;;;;0.28;98.66504;95898.14;;;;
2020/03/22 06:35:05;;;;;;;15.7;9.799999;;;;;;;0.28;98.66504;95898.14;;;;
2020/03/22 06:36:06;;;;;;;15.7;9.799999;;;;;;;0.28;98.66504;95898.14;;;;
2020/03/22 06:37:08;;;;;;;11.95;8.599999;;;;;;;0.35;98.25488;95893.86;;;;
2020/03/22 06:38:13;;;;;;;11.95;8.599999;;;;;;;0.35;98.25488;95893.86;;;;
2020/03/22 06:39:17;;;;;;;11.95;8.599999;;;;;;;0.35;98.25488;95893.86;;;;
2020/03/22 06:40:19;;;;;;;11.95;8.599999;;;;;;;0.35;98.25488;95893.86;;;;
2020/03/22 06:41:40;;;;;;;11.95;8.599999;;;;;;;0.35;98.25488;95893.86;;;;
2020/03/22 06:42:44;;;;;;;11.95;8.599999;;;;;;;0.35;98.25488;95893.86;;;;
2020/03/22 06:43:50;;;;;;;11.95;8.599999;;;;;;;0.35;98.25488;95893.86;;;;
2020/03/22 06:45:15;;;;;;;11.95;8.599999;;;;;;;0.35;98.25488;95893.86;;;;
2020/03/22 06:46:38;;;;;;;11.95;8.599999;;;;;;;0.35;98.25488;95893.86;;;;
2020/03/22 06:47:48;;;;;;;10.2;8.699999;;;;;;;0.57;97.47656;95912.31;;;;
2020/03/22 06:48:51;;;;;;;10.2;8.699999;;;;;;;0.57;97.47656;95912.31;;;;
2020/03/22 06:49:52;;;;;;;10.2;8.699999;;;;;;;0.57;97.47656;95912.31;;;;
2020/03/22 06:51:50;;;;;;;10.2;8.699999;;;;;;;0.57;97.47656;95912.31;;;;
2020/03/22 06:53:19;;;;;;;10.2;8.699999;;;;;;;0.57;97.47656;95912.31;;;;
2020/03/22 06:55:01;;;;;;;10.2;8.699999;;;;;;;0.57;97.47656;95912.31;;;;
2020/03/22 06:56:04;;;;;;;10.2;8.699999;;;;;;;0.57;97.47656;95912.31;;;;
2020/03/22 06:57:06;;;;;;;10.2;8.699999;;;;;;;0.57;97.47656;95912.31;;;;
2020/03/22 06:58:09;;;;;;;10.2;8.699999;;;;;;;0.57;97.47656;95912.31;;;;
2020/03/22 06:59:20;;;;;;;10.65;8.5;;;;;;;0.65;96.9043;95922.05;;;;
2020/03/22 07:00:50;;;;;;;10.65;8.5;;;;;;;0.65;96.9043;95922.05;;;;
2020/03/22 07:02:05;;;;;;;10.65;8.5;;;;;;;0.65;96.9043;95922.05;;;;
2020/03/22 07:03:36;;;;;;;10.65;8.5;;;;;;;0.65;96.9043;95922.05;;;;
2020/03/22 07:06:21;;;;;;;10.65;8.5;;;;;;;0.65;96.9043;95922.05;;;;
2020/03/22 07:07:49;;;;;;;10.65;8.5;;;;;;;0.65;96.9043;95922.05;;;;
2020/03/22 07:08:58;;;;;;;11.6;8.65;;;;;;;0.83;96.34277;95929.92;;;;
2020/03/22 07:10:09;;;;;;;11.6;8.65;;;;;;;0.83;96.34277;95929.92;;;;
2020/03/22 07:11:17;;;;;;;11.6;8.65;;;;;;;0.83;96.34277;95929.92;;;;
2020/03/22 07:12:29;;;;;;;11.6;8.65;;;;;;;0.83;96.34277;95929.92;;;;
2020/03/22 07:13:51;;;;;;;11.6;8.65;;;;;;;0.83;96.34277;95929.92;;;;
2020/03/22 07:15:09;;;;;;;11.6;8.65;;;;;;;0.83;96.34277;95929.92;;;;
2020/03/22 07:16:30;;;;;;;11.6;8.65;;;;;;;0.83;96.34277;95929.92;;;;
2020/03/22 07:17:51;;;;;;;11.6;8.65;;;;;;;0.83;96.34277;95929.92;;;;
2020/03/22 07:19:37;;;;;;;11.65;8.600001;;;;;;;1.08;95.37891;95944.56;;;;
2020/03/22 07:21:00;;;;;;;11.65;8.600001;;;;;;;1.08;95.37891;95944.56;;;;
2020/03/22 07:22:31;;;;;;;11.65;8.600001;;;;;;;1.08;95.37891;95944.56;;;;
2020/03/22 07:23:49;;;;;;;11.65;8.600001;;;;;;;1.08;95.37891;95944.56;;;;
2020/03/22 07:25:02;;;;;;;11.65;8.600001;;;;;;;1.08;95.37891;95944.56;;;;
2020/03/22 07:26:14;;;;;;;11.65;8.600001;;;;;;;1.08;95.37891;95944.56;;;;
2020/03/22 07:27:24;;;;;;;11.65;8.600001;;;;;;;1.08;95.37891;95944.56;;;;
2020/03/22 07:29:43;;;;;;;11.65;8.600001;;;;;;;1.08;95.37891;95944.56;;;;